Main page
METAR-TAF:

METAR-TAF

Airports :

Algeciras Heliport

Algeciras, Spain

latitude: 36-07-44N, longitude: 05-26-28W, elevation: 30 m

Current weather observation

The report was made 15 minutes ago, at 04:00 UTC
Wind 16 kt from the East/Northeast
Temperature 19°C
Humidity 94%
Pressure 1022 hPa
Visibility 10 km or more
no clouds below 1500 m and no cumulonimbus

METAR: LEAG 260400Z AUTO 07016KT CAVOK 19/18 Q1022

Time: 06:15 (04:15 UTC)


TAF: missing

Weather observations and forecasts of more than 4000 airports (METAR and TAF reports).

The available stations are represented by yellow and red dots on the map.

Hover mouse over dot to see the name of the station.

Then click to see weather observations and forecasts.

To change the map : click on the green buttons with a black cross to zoom in, on the green button with a dash to zoom out, or on the green arrows for adjacent maps.


METAR-TAF: